sensor_id;sensor_type;location;lat;lon;timestamp;pressure;altitude;pressure_sealevel;temperature;humidity
57192;BME280;43052;52.588;13.396;2023-04-28T00:00:25;101544.00;;;3.32;63.74
57192;BME280;43052;52.588;13.396;2023-04-28T00:02:51;101547.31;;;3.28;64.06
57192;BME280;43052;52.588;13.396;2023-04-28T00:05:16;101545.34;;;3.21;63.92
57192;BME280;43052;52.588;13.396;2023-04-28T00:07:42;101541.66;;;3.14;64.18
57192;BME280;43052;52.588;13.396;2023-04-28T00:10:08;101544.81;;;3.07;64.38
57192;BME280;43052;52.588;13.396;2023-04-28T00:12:33;101543.06;;;3.06;64.67
57192;BME280;43052;52.588;13.396;2023-04-28T00:14:58;101540.31;;;3.01;64.54
57192;BME280;43052;52.588;13.396;2023-04-28T00:17:23;101535.72;;;2.94;65.03
57192;BME280;43052;52.588;13.396;2023-04-28T00:19:49;101532.16;;;2.90;65.30
57192;BME280;43052;52.588;13.396;2023-04-28T00:22:14;101531.88;;;2.84;65.25
57192;BME280;43052;52.588;13.396;2023-04-28T00:24:39;101538.81;;;2.85;65.28
57192;BME280;43052;52.588;13.396;2023-04-28T00:27:06;101541.19;;;2.79;65.45
57192;BME280;43052;52.588;13.396;2023-04-28T00:29:31;101536.69;;;2.75;65.57
57192;BME280;43052;52.588;13.396;2023-04-28T00:31:56;101539.22;;;2.73;65.86
57192;BME280;43052;52.588;13.396;2023-04-28T00:34:22;101540.00;;;2.71;65.94
57192;BME280;43052;52.588;13.396;2023-04-28T00:36:47;101541.69;;;2.70;65.87
57192;BME280;43052;52.588;13.396;2023-04-28T00:39:12;101535.41;;;2.63;66.18
57192;BME280;43052;52.588;13.396;2023-04-28T00:41:37;101536.91;;;2.58;66.15
57192;BME280;43052;52.588;13.396;2023-04-28T00:44:03;101530.88;;;2.58;66.25
57192;BME280;43052;52.588;13.396;2023-04-28T00:46:29;101534.28;;;2.57;66.61
57192;BME280;43052;52.588;13.396;2023-04-28T00:48:56;101522.88;;;2.51;66.60
57192;BME280;43052;52.588;13.396;2023-04-28T00:51:22;101524.53;;;2.49;66.71
57192;BME280;43052;52.588;13.396;2023-04-28T00:53:47;101526.31;;;2.50;67.03
57192;BME280;43052;52.588;13.396;2023-04-28T00:56:13;101521.16;;;2.50;67.14
57192;BME280;43052;52.588;13.396;2023-04-28T00:58:38;101525.41;;;2.50;67.18
57192;BME280;43052;52.588;13.396;2023-04-28T01:01:04;101519.47;;;2.53;67.29
57192;BME280;43052;52.588;13.396;2023-04-28T01:03:33;101518.63;;;2.52;67.21
57192;BME280;43052;52.588;13.396;2023-04-28T01:05:58;101513.50;;;2.54;67.23
57192;BME280;43052;52.588;13.396;2023-04-28T01:08:29;101520.28;;;2.51;67.26
57192;BME280;43052;52.588;13.396;2023-04-28T01:10:55;101520.44;;;2.55;67.30
57192;BME280;43052;52.588;13.396;2023-04-28T01:13:20;101510.09;;;2.55;67.31
57192;BME280;43052;52.588;13.396;2023-04-28T01:15:45;101515.25;;;2.55;67.35
57192;BME280;43052;52.588;13.396;2023-04-28T01:18:10;101511.91;;;2.57;67.57
57192;BME280;43052;52.588;13.396;2023-04-28T01:20:36;101506.88;;;2.60;67.49
57192;BME280;43052;52.588;13.396;2023-04-28T01:23:01;101507.00;;;2.63;67.25
57192;BME280;43052;52.588;13.396;2023-04-28T01:25:26;101505.34;;;2.65;67.33
57192;BME280;43052;52.588;13.396;2023-04-28T01:27:51;101501.94;;;2.66;67.22
57192;BME280;43052;52.588;13.396;2023-04-28T01:30:17;101499.38;;;2.66;66.96
57192;BME280;43052;52.588;13.396;2023-04-28T01:32:42;101497.69;;;2.67;66.91
57192;BME280;43052;52.588;13.396;2023-04-28T01:35:07;101503.75;;;2.69;66.66
57192;BME280;43052;52.588;13.396;2023-04-28T01:37:32;101494.31;;;2.70;66.88
57192;BME280;43052;52.588;13.396;2023-04-28T01:39:58;101492.59;;;2.70;66.83
57192;BME280;43052;52.588;13.396;2023-04-28T01:42:23;101497.03;;;2.73;66.88
57192;BME280;43052;52.588;13.396;2023-04-28T01:44:48;101489.94;;;2.67;66.74
57192;BME280;43052;52.588;13.396;2023-04-28T01:47:13;101492.56;;;2.69;66.55
57192;BME280;43052;52.588;13.396;2023-04-28T01:49:39;101493.44;;;2.69;66.60
57192;BME280;43052;52.588;13.396;2023-04-28T01:52:04;101484.84;;;2.70;66.75
57192;BME280;43052;52.588;13.396;2023-04-28T01:54:29;101482.22;;;2.69;66.62
57192;BME280;43052;52.588;13.396;2023-04-28T01:56:54;101486.53;;;2.68;66.65
57192;BME280;43052;52.588;13.396;2023-04-28T01:59:20;101486.44;;;2.66;66.44
57192;BME280;43052;52.588;13.396;2023-04-28T02:01:45;101485.44;;;2.63;66.38
57192;BME280;43052;52.588;13.396;2023-04-28T02:04:10;101481.91;;;2.61;66.71
57192;BME280;43052;52.588;13.396;2023-04-28T02:06:35;101482.06;;;2.64;66.63
57192;BME280;43052;52.588;13.396;2023-04-28T02:09:01;101484.69;;;2.65;66.47
57192;BME280;43052;52.588;13.396;2023-04-28T02:11:26;101480.38;;;2.64;66.60
57192;BME280;43052;52.588;13.396;2023-04-28T02:13:51;101476.03;;;2.63;66.46
57192;BME280;43052;52.588;13.396;2023-04-28T02:16:16;101477.66;;;2.61;66.47
57192;BME280;43052;52.588;13.396;2023-04-28T02:18:42;101487.22;;;2.64;66.36
57192;BME280;43052;52.588;13.396;2023-04-28T02:21:11;101478.59;;;2.63;66.23
57192;BME280;43052;52.588;13.396;2023-04-28T02:23:36;101478.59;;;2.63;66.46
57192;BME280;43052;52.588;13.396;2023-04-28T02:26:02;101483.69;;;2.62;66.26
57192;BME280;43052;52.588;13.396;2023-04-28T02:28:27;101478.44;;;2.59;66.52
57192;BME280;43052;52.588;13.396;2023-04-28T02:31:02;101476.53;;;2.55;66.40
57192;BME280;43052;52.588;13.396;2023-04-28T02:33:27;101480.06;;;2.57;66.47
57192;BME280;43052;52.588;13.396;2023-04-28T02:36:00;101472.09;;;2.50;66.66
57192;BME280;43052;52.588;13.396;2023-04-28T02:38:25;101479.88;;;2.52;66.57
57192;BME280;43052;52.588;13.396;2023-04-28T02:40:58;101475.34;;;2.46;66.57
57192;BME280;43052;52.588;13.396;2023-04-28T02:43:24;101472.63;;;2.43;66.80
57192;BME280;43052;52.588;13.396;2023-04-28T02:45:49;101463.91;;;2.40;66.63
57192;BME280;43052;52.588;13.396;2023-04-28T02:48:15;101468.06;;;2.36;66.85
57192;BME280;43052;52.588;13.396;2023-04-28T02:50:40;101464.63;;;2.35;67.03
57192;BME280;43052;52.588;13.396;2023-04-28T02:53:05;101464.53;;;2.34;67.07
57192;BME280;43052;52.588;13.396;2023-04-28T02:55:30;101464.44;;;2.31;66.98
57192;BME280;43052;52.588;13.396;2023-04-28T02:57:56;101468.78;;;2.32;67.04
57192;BME280;43052;52.588;13.396;2023-04-28T03:00:21;101465.25;;;2.30;67.07
57192;BME280;43052;52.588;13.396;2023-04-28T03:02:46;101465.19;;;2.28;67.22
57192;BME280;43052;52.588;13.396;2023-04-28T03:05:12;101461.66;;;2.26;67.16
57192;BME280;43052;52.588;13.396;2023-04-28T03:07:37;101459.91;;;2.25;67.25
57192;BME280;43052;52.588;13.396;2023-04-28T03:10:02;101461.72;;;2.28;67.13
57192;BME280;43052;52.588;13.396;2023-04-28T03:12:27;101453.09;;;2.27;67.41
57192;BME280;43052;52.588;13.396;2023-04-28T03:14:53;101453.16;;;2.29;67.27
57192;BME280;43052;52.588;13.396;2023-04-28T03:17:18;101453.16;;;2.29;67.21
57192;BME280;43052;52.588;13.396;2023-04-28T03:19:43;101450.56;;;2.29;67.42
57192;BME280;43052;52.588;13.396;2023-04-28T03:22:08;101454.91;;;2.30;67.51
57192;BME280;43052;52.588;13.396;2023-04-28T03:24:34;101450.72;;;2.32;67.38
57192;BME280;43052;52.588;13.396;2023-04-28T03:26:59;101444.72;;;2.33;67.40
57192;BME280;43052;52.588;13.396;2023-04-28T03:29:26;101456.09;;;2.38;67.17
57192;BME280;43052;52.588;13.396;2023-04-28T03:31:51;101445.00;;;2.41;67.38
57192;BME280;43052;52.588;13.396;2023-04-28T03:34:16;101441.66;;;2.43;67.35
57192;BME280;43052;52.588;13.396;2023-04-28T03:36:41;101439.25;;;2.48;66.95
57192;BME280;43052;52.588;13.396;2023-04-28T03:39:07;101438.75;;;2.57;67.11
57192;BME280;43052;52.588;13.396;2023-04-28T03:41:33;101438.97;;;2.63;66.79
57192;BME280;43052;52.588;13.396;2023-04-28T03:43:59;101437.47;;;2.68;66.70
57192;BME280;43052;52.588;13.396;2023-04-28T03:46:24;101446.38;;;2.76;66.58
57192;BME280;43052;52.588;13.396;2023-04-28T03:48:49;101443.00;;;2.79;66.11
57192;BME280;43052;52.588;13.396;2023-04-28T03:51:14;101440.66;;;2.85;66.17
57192;BME280;43052;52.588;13.396;2023-04-28T03:53:40;101433.88;;;2.89;66.07
57192;BME280;43052;52.588;13.396;2023-04-28T03:56:05;101430.59;;;2.93;65.98
57192;BME280;43052;52.588;13.396;2023-04-28T03:58:30;101428.25;;;2.99;66.10
57192;BME280;43052;52.588;13.396;2023-04-28T04:00:56;101427.63;;;3.06;65.83
57192;BME280;43052;52.588;13.396;2023-04-28T04:03:21;101432.25;;;3.15;65.63
57192;BME280;43052;52.588;13.396;2023-04-28T04:05:50;101429.88;;;3.21;64.99
57192;BME280;43052;52.588;13.396;2023-04-28T04:08:15;101416.34;;;3.28;65.17
57192;BME280;43052;52.588;13.396;2023-04-28T04:10:40;101414.19;;;3.41;64.86
57192;BME280;43052;52.588;13.396;2023-04-28T04:13:05;101414.75;;;3.58;64.19
57192;BME280;43052;52.588;13.396;2023-04-28T04:15:31;101420.50;;;3.75;63.80
57192;BME280;43052;52.588;13.396;2023-04-28T04:17:56;101415.66;;;3.86;63.51
57192;BME280;43052;52.588;13.396;2023-04-28T04:20:21;101416.94;;;3.99;62.93
57192;BME280;43052;52.588;13.396;2023-04-28T04:22:46;101413.16;;;4.16;62.57
57192;BME280;43052;52.588;13.396;2023-04-28T04:25:12;101410.97;;;4.29;62.42
57192;BME280;43052;52.588;13.396;2023-04-28T04:27:37;101414.03;;;4.44;61.52
57192;BME280;43052;52.588;13.396;2023-04-28T04:30:02;101408.91;;;4.76;61.29
57192;BME280;43052;52.588;13.396;2023-04-28T04:32:28;101403.94;;;5.48;60.08
57192;BME280;43052;52.588;13.396;2023-04-28T04:34:53;101405.38;;;6.45;58.43
57192;BME280;43052;52.588;13.396;2023-04-28T04:37:18;101399.78;;;7.11;56.87
57192;BME280;43052;52.588;13.396;2023-04-28T04:39:43;101393.16;;;7.28;54.94
57192;BME280;43052;52.588;13.396;2023-04-28T04:42:09;101395.34;;;7.06;54.96
57192;BME280;43052;52.588;13.396;2023-04-28T04:44:34;101392.53;;;6.96;55.35
57192;BME280;43052;52.588;13.396;2023-04-28T04:46:59;101381.84;;;6.80;55.18
57192;BME280;43052;52.588;13.396;2023-04-28T04:49:24;101389.66;;;6.80;54.96
57192;BME280;43052;52.588;13.396;2023-04-28T04:51:49;101381.97;;;6.86;53.85
57192;BME280;43052;52.588;13.396;2023-04-28T04:54:15;101386.31;;;6.87;54.45
57192;BME280;43052;52.588;13.396;2023-04-28T04:56:40;101388.09;;;6.90;54.09
57192;BME280;43052;52.588;13.396;2023-04-28T04:59:06;101392.66;;;7.02;53.70
57192;BME280;43052;52.588;13.396;2023-04-28T05:01:32;101397.28;;;7.17;53.57
57192;BME280;43052;52.588;13.396;2023-04-28T05:03:57;101393.56;;;7.02;53.00
57192;BME280;43052;52.588;13.396;2023-04-28T05:06:22;101382.91;;;6.90;53.28
57192;BME280;43052;52.588;13.396;2023-04-28T05:08:47;101382.06;;;6.91;53.69
57192;BME280;43052;52.588;13.396;2023-04-28T05:11:13;101383.78;;;6.90;53.36
57192;BME280;43052;52.588;13.396;2023-04-28T05:13:38;101381.19;;;6.90;53.50
57192;BME280;43052;52.588;13.396;2023-04-28T05:16:05;101380.28;;;6.88;53.36
57192;BME280;43052;52.588;13.396;2023-04-28T05:18:30;101373.59;;;7.03;53.49
57192;BME280;43052;52.588;13.396;2023-04-28T05:20:56;101378.50;;;7.86;52.42
57192;BME280;43052;52.588;13.396;2023-04-28T05:23:21;101371.00;;;9.56;48.85
57192;BME280;43052;52.588;13.396;2023-04-28T05:25:46;101367.41;;;11.00;45.23
57192;BME280;43052;52.588;13.396;2023-04-28T05:28:11;101358.75;;;11.94;43.95
57192;BME280;43052;52.588;13.396;2023-04-28T05:30:37;101355.94;;;12.65;42.84
57192;BME280;43052;52.588;13.396;2023-04-28T05:33:02;101360.81;;;13.25;40.52
57192;BME280;43052;52.588;13.396;2023-04-28T05:35:27;101350.66;;;13.91;39.87
57192;BME280;43052;52.588;13.396;2023-04-28T05:37:53;101355.50;;;14.31;37.78
57192;BME280;43052;52.588;13.396;2023-04-28T05:40:18;101346.94;;;14.85;37.43
57192;BME280;43052;52.588;13.396;2023-04-28T05:42:43;101344.13;;;15.52;36.61
57192;BME280;43052;52.588;13.396;2023-04-28T05:45:09;101339.03;;;15.96;34.56
57192;BME280;43052;52.588;13.396;2023-04-28T05:47:34;101339.00;;;16.42;34.85
57192;BME280;43052;52.588;13.396;2023-04-28T05:50:00;101334.13;;;17.43;34.41
57192;BME280;43052;52.588;13.396;2023-04-28T05:52:25;101325.13;;;17.83;31.69
57192;BME280;43052;52.588;13.396;2023-04-28T05:54:50;101330.19;;;17.92;31.67
57192;BME280;43052;52.588;13.396;2023-04-28T05:57:15;101327.22;;;18.66;31.08
57192;BME280;43052;52.588;13.396;2023-04-28T05:59:41;101320.09;;;18.98;29.11
57192;BME280;43052;52.588;13.396;2023-04-28T06:02:06;101320.19;;;18.95;28.79
57192;BME280;43052;52.588;13.396;2023-04-28T06:04:31;101314.22;;;18.87;28.97
57192;BME280;43052;52.588;13.396;2023-04-28T06:06:57;101315.00;;;18.90;28.83
57192;BME280;43052;52.588;13.396;2023-04-28T06:09:22;101307.19;;;19.41;28.61
57192;BME280;43052;52.588;13.396;2023-04-28T06:11:47;101311.63;;;19.93;27.65
57192;BME280;43052;52.588;13.396;2023-04-28T06:14:12;101313.69;;;20.10;26.82
57192;BME280;43052;52.588;13.396;2023-04-28T06:16:38;101311.38;;;20.48;26.55
57192;BME280;43052;52.588;13.396;2023-04-28T06:19:03;101306.50;;;20.59;26.44
57192;BME280;43052;52.588;13.396;2023-04-28T06:21:28;101308.59;;;20.75;25.50
57192;BME280;43052;52.588;13.396;2023-04-28T06:23:54;101299.38;;;20.38;25.82
57192;BME280;43052;52.588;13.396;2023-04-28T06:26:19;101298.97;;;20.71;25.92
57192;BME280;43052;52.588;13.396;2023-04-28T06:28:44;101300.22;;;21.28;25.51
57192;BME280;43052;52.588;13.396;2023-04-28T06:31:09;101291.25;;;21.93;24.80
57192;BME280;43052;52.588;13.396;2023-04-28T06:33:35;101288.94;;;22.44;23.42
57192;BME280;43052;52.588;13.396;2023-04-28T06:36:00;101275.09;;;21.98;23.81
57192;BME280;43052;52.588;13.396;2023-04-28T06:38:25;101277.88;;;22.14;23.43
57192;BME280;43052;52.588;13.396;2023-04-28T06:40:51;101278.16;;;21.88;23.35
57192;BME280;43052;52.588;13.396;2023-04-28T06:43:16;101287.56;;;21.77;23.50
57192;BME280;43052;52.588;13.396;2023-04-28T06:45:41;101273.84;;;21.65;23.34
57192;BME280;43052;52.588;13.396;2023-04-28T06:48:07;101282.69;;;22.05;23.41
57192;BME280;43052;52.588;13.396;2023-04-28T06:50:32;101286.38;;;22.79;23.21
57192;BME280;43052;52.588;13.396;2023-04-28T06:52:57;101272.59;;;23.60;22.11
57192;BME280;43052;52.588;13.396;2023-04-28T06:55:23;101270.88;;;24.59;20.68
57192;BME280;43052;52.588;13.396;2023-04-28T06:57:48;101267.16;;;25.24;20.55
57192;BME280;43052;52.588;13.396;2023-04-28T07:00:14;101267.66;;;26.33;20.08
57192;BME280;43052;52.588;13.396;2023-04-28T07:02:39;101252.88;;;26.82;19.15
57192;BME280;43052;52.588;13.396;2023-04-28T07:05:05;101262.34;;;25.45;19.59
57192;BME280;43052;52.588;13.396;2023-04-28T07:07:31;101260.16;;;25.07;19.99
57192;BME280;43052;52.588;13.396;2023-04-28T07:09:56;101254.84;;;25.80;19.07
57192;BME280;43052;52.588;13.396;2023-04-28T07:12:23;101253.72;;;26.14;18.99
57192;BME280;43052;52.588;13.396;2023-04-28T07:14:48;101270.03;;;26.38;17.05
57192;BME280;43052;52.588;13.396;2023-04-28T07:17:15;101257.63;;;25.34;17.08
57192;BME280;43052;52.588;13.396;2023-04-28T07:19:40;101243.13;;;24.45;18.01
57192;BME280;43052;52.588;13.396;2023-04-28T07:22:06;101247.84;;;24.24;17.58
57192;BME280;43052;52.588;13.396;2023-04-28T07:24:31;101257.94;;;24.19;17.86
57192;BME280;43052;52.588;13.396;2023-04-28T07:26:56;101252.78;;;23.31;18.20
57192;BME280;43052;52.588;13.396;2023-04-28T07:29:22;101243.91;;;22.57;18.48
57192;BME280;43052;52.588;13.396;2023-04-28T07:31:48;101246.72;;;22.35;19.35
57192;BME280;43052;52.588;13.396;2023-04-28T07:34:14;101239.75;;;22.13;19.21
57192;BME280;43052;52.588;13.396;2023-04-28T07:36:39;101248.81;;;22.09;19.46
57192;BME280;43052;52.588;13.396;2023-04-28T07:39:04;101244.66;;;22.22;19.67
57192;BME280;43052;52.588;13.396;2023-04-28T07:41:35;101240.75;;;22.49;19.73
57192;BME280;43052;52.588;13.396;2023-04-28T07:44:00;101222.63;;;22.75;19.63
57192;BME280;43052;52.588;13.396;2023-04-28T07:46:26;101227.84;;;23.13;19.60
57192;BME280;43052;52.588;13.396;2023-04-28T07:48:52;101235.00;;;23.12;19.67
57192;BME280;43052;52.588;13.396;2023-04-28T07:51:18;101219.91;;;23.64;18.95
57192;BME280;43052;52.588;13.396;2023-04-28T07:53:43;101210.53;;;24.38;18.93
57192;BME280;43052;52.588;13.396;2023-04-28T07:56:08;101220.44;;;24.84;18.63
57192;BME280;43052;52.588;13.396;2023-04-28T07:58:33;101210.53;;;24.70;18.35
57192;BME280;43052;52.588;13.396;2023-04-28T08:01:00;101210.72;;;24.67;18.66
57192;BME280;43052;52.588;13.396;2023-04-28T08:03:25;101209.94;;;24.96;18.25
57192;BME280;43052;52.588;13.396;2023-04-28T08:05:50;101205.31;;;25.44;17.95
57192;BME280;43052;52.588;13.396;2023-04-28T08:08:16;101203.94;;;25.66;17.78
57192;BME280;43052;52.588;13.396;2023-04-28T08:10:41;101203.38;;;26.46;17.54
57192;BME280;43052;52.588;13.396;2023-04-28T08:13:07;101203.13;;;26.64;16.66
57192;BME280;43052;52.588;13.396;2023-04-28T08:15:34;101200.78;;;25.88;17.14
57192;BME280;43052;52.588;13.396;2023-04-28T08:17:59;101196.81;;;25.22;18.11
57192;BME280;43052;52.588;13.396;2023-04-28T08:20:24;101189.63;;;25.67;18.03
57192;BME280;43052;52.588;13.396;2023-04-28T08:22:49;101198.59;;;25.95;17.72
57192;BME280;43052;52.588;13.396;2023-04-28T08:25:15;101191.63;;;25.92;17.70
57192;BME280;43052;52.588;13.396;2023-04-28T08:27:40;101194.84;;;26.81;17.04
57192;BME280;43052;52.588;13.396;2023-04-28T08:30:09;101188.13;;;27.27;16.62
57192;BME280;43052;52.588;13.396;2023-04-28T08:32:36;101187.19;;;27.54;16.31
57192;BME280;43052;52.588;13.396;2023-04-28T08:35:01;101183.09;;;27.48;16.40
57192;BME280;43052;52.588;13.396;2023-04-28T08:37:27;101182.22;;;26.96;16.52
57192;BME280;43052;52.588;13.396;2023-04-28T08:39:53;101180.91;;;26.62;17.08
57192;BME280;43052;52.588;13.396;2023-04-28T08:42:29;101182.78;;;26.19;17.32
57192;BME280;43052;52.588;13.396;2023-04-28T08:44:55;101184.63;;;25.75;17.66
57192;BME280;43052;52.588;13.396;2023-04-28T08:47:30;101180.47;;;26.27;17.80
57192;BME280;43052;52.588;13.396;2023-04-28T08:50:02;101175.34;;;25.52;18.21
57192;BME280;43052;52.588;13.396;2023-04-28T08:52:28;101175.97;;;24.03;19.29
57192;BME280;43052;52.588;13.396;2023-04-28T08:54:55;101175.63;;;23.44;20.08
57192;BME280;43052;52.588;13.396;2023-04-28T08:57:22;101168.94;;;23.69;19.85
57192;BME280;43052;52.588;13.396;2023-04-28T08:59:48;101166.53;;;23.98;19.62
57192;BME280;43052;52.588;13.396;2023-04-28T09:02:15;101163.34;;;24.69;19.01
57192;BME280;43052;52.588;13.396;2023-04-28T09:04:40;101156.13;;;25.89;18.18
57192;BME280;43052;52.588;13.396;2023-04-28T09:07:12;101158.91;;;26.29;17.90
57192;BME280;43052;52.588;13.396;2023-04-28T09:09:38;101160.97;;;25.96;18.07
57192;BME280;43052;52.588;13.396;2023-04-28T09:12:05;101149.88;;;25.01;18.53
57192;BME280;43052;52.588;13.396;2023-04-28T09:14:33;101141.94;;;25.00;18.52
57192;BME280;43052;52.588;13.396;2023-04-28T09:16:59;101142.00;;;24.84;19.02
57192;BME280;43052;52.588;13.396;2023-04-28T09:19:32;101130.78;;;25.22;18.68
57192;BME280;43052;52.588;13.396;2023-04-28T09:21:58;101142.13;;;25.42;18.46
57192;BME280;43052;52.588;13.396;2023-04-28T09:24:29;101137.53;;;24.84;18.70
57192;BME280;43052;52.588;13.396;2023-04-28T09:26:56;101130.97;;;24.28;19.41
57192;BME280;43052;52.588;13.396;2023-04-28T09:29:21;101124.00;;;24.41;18.95
57192;BME280;43052;52.588;13.396;2023-04-28T09:31:46;101125.00;;;24.38;19.59
57192;BME280;43052;52.588;13.396;2023-04-28T09:34:12;101121.81;;;25.38;18.35
57192;BME280;43052;52.588;13.396;2023-04-28T09:36:37;101118.31;;;24.78;18.98
57192;BME280;43052;52.588;13.396;2023-04-28T09:39:02;101113.66;;;24.96;19.02
57192;BME280;43052;52.588;13.396;2023-04-28T09:41:42;101104.03;;;26.07;18.57
57192;BME280;43052;52.588;13.396;2023-04-28T09:44:11;101102.31;;;26.74;17.41
57192;BME280;43052;52.588;13.396;2023-04-28T09:46:37;101107.88;;;26.18;18.61
57192;BME280;43052;52.588;13.396;2023-04-28T09:49:02;101100.22;;;26.39;17.79
57192;BME280;43052;52.588;13.396;2023-04-28T09:51:28;101095.72;;;26.12;18.13
57192;BME280;43052;52.588;13.396;2023-04-28T09:53:54;101083.88;;;26.29;17.96
57192;BME280;43052;52.588;13.396;2023-04-28T09:56:28;101083.59;;;25.92;18.21
57192;BME280;43052;52.588;13.396;2023-04-28T09:58:57;101091.22;;;24.37;19.73
57192;BME280;43052;52.588;13.396;2023-04-28T10:01:44;101089.78;;;25.07;19.34
57192;BME280;43052;52.588;13.396;2023-04-28T10:04:11;101092.84;;;25.01;19.24
57192;BME280;43052;52.588;13.396;2023-04-28T10:06:37;101086.44;;;24.28;19.91
57192;BME280;43052;52.588;13.396;2023-04-28T10:09:05;101085.00;;;23.74;19.93
57192;BME280;43052;52.588;13.396;2023-04-28T10:11:31;101096.25;;;23.79;20.43
57192;BME280;43052;52.588;13.396;2023-04-28T10:13:58;101093.00;;;23.74;20.11
57192;BME280;43052;52.588;13.396;2023-04-28T10:16:28;101084.13;;;23.58;20.37
57192;BME280;43052;52.588;13.396;2023-04-28T10:18:55;101080.06;;;23.51;20.43
57192;BME280;43052;52.588;13.396;2023-04-28T10:21:20;101065.59;;;23.55;20.76
57192;BME280;43052;52.588;13.396;2023-04-28T10:23:59;101067.47;;;23.37;21.08
57192;BME280;43052;52.588;13.396;2023-04-28T10:26:53;101065.22;;;23.45;21.02
57192;BME280;43052;52.588;13.396;2023-04-28T10:29:23;101060.09;;;23.42;21.20
57192;BME280;43052;52.588;13.396;2023-04-28T10:32:21;101062.91;;;23.05;21.73
57192;BME280;43052;52.588;13.396;2023-04-28T10:34:48;101061.19;;;23.22;21.73
57192;BME280;43052;52.588;13.396;2023-04-28T10:37:14;101050.97;;;23.78;21.06
57192;BME280;43052;52.588;13.396;2023-04-28T10:39:40;101053.88;;;23.41;21.13
57192;BME280;43052;52.588;13.396;2023-04-28T10:45:10;101047.09;;;20.58;24.19
57192;BME280;43052;52.588;13.396;2023-04-28T10:47:59;101042.09;;;20.08;24.97
57192;BME280;43052;52.588;13.396;2023-04-28T10:50:28;101045.69;;;19.61;25.53
57192;BME280;43052;52.588;13.396;2023-04-28T10:52:55;101039.31;;;19.19;26.18
57192;BME280;43052;52.588;13.396;2023-04-28T10:55:31;101043.34;;;19.05;27.08
57192;BME280;43052;52.588;13.396;2023-04-28T11:00:42;101040.75;;;18.78;27.58
57192;BME280;43052;52.588;13.396;2023-04-28T11:06:35;101031.69;;;19.09;27.24
57192;BME280;43052;52.588;13.396;2023-04-28T11:09:02;101023.41;;;19.19;27.17
57192;BME280;43052;52.588;13.396;2023-04-28T11:11:29;101020.19;;;19.10;27.38
57192;BME280;43052;52.588;13.396;2023-04-28T11:16:53;101024.28;;;19.19;27.65
57192;BME280;43052;52.588;13.396;2023-04-28T11:19:23;101025.84;;;18.76;27.73
57192;BME280;43052;52.588;13.396;2023-04-28T11:21:50;101023.63;;;18.37;28.67
57192;BME280;43052;52.588;13.396;2023-04-28T11:24:15;101015.75;;;18.35;29.01
57192;BME280;43052;52.588;13.396;2023-04-28T11:26:41;101025.06;;;18.47;28.75
57192;BME280;43052;52.588;13.396;2023-04-28T11:29:08;101021.56;;;18.20;28.74
57192;BME280;43052;52.588;13.396;2023-04-28T11:31:34;101019.41;;;18.04;29.04
57192;BME280;43052;52.588;13.396;2023-04-28T11:34:03;101018.97;;;18.18;29.10
57192;BME280;43052;52.588;13.396;2023-04-28T11:36:31;101005.78;;;18.43;28.85
57192;BME280;43052;52.588;13.396;2023-04-28T11:38:58;101012.34;;;18.82;28.77
57192;BME280;43052;52.588;13.396;2023-04-28T11:41:23;101005.38;;;19.05;28.42
57192;BME280;43052;52.588;13.396;2023-04-28T11:43:49;101009.59;;;18.85;28.54
57192;BME280;43052;52.588;13.396;2023-04-28T11:46:16;101006.91;;;18.61;28.87
57192;BME280;43052;52.588;13.396;2023-04-28T11:48:42;100991.66;;;18.68;29.15
57192;BME280;43052;52.588;13.396;2023-04-28T11:51:08;100997.13;;;18.63;28.81
57192;BME280;43052;52.588;13.396;2023-04-28T11:53:44;101003.19;;;18.42;29.56
57192;BME280;43052;52.588;13.396;2023-04-28T11:56:09;100993.69;;;18.35;29.72
57192;BME280;43052;52.588;13.396;2023-04-28T11:58:34;101002.16;;;18.46;29.46
57192;BME280;43052;52.588;13.396;2023-04-28T12:03:32;100989.06;;;18.41;29.54
57192;BME280;43052;52.588;13.396;2023-04-28T12:05:57;100980.91;;;18.22;29.68
57192;BME280;43052;52.588;13.396;2023-04-28T12:08:28;100980.75;;;18.00;29.81
57192;BME280;43052;52.588;13.396;2023-04-28T12:11:06;100982.22;;;18.09;30.09
57192;BME280;43052;52.588;13.396;2023-04-28T12:13:33;100984.09;;;18.32;30.02
57192;BME280;43052;52.588;13.396;2023-04-28T12:16:00;100980.47;;;18.35;29.65
57192;BME280;43052;52.588;13.396;2023-04-28T12:18:27;100971.28;;;18.45;29.66
57192;BME280;43052;52.588;13.396;2023-04-28T12:20:53;100971.72;;;18.58;29.62
57192;BME280;43052;52.588;13.396;2023-04-28T12:23:34;100972.59;;;18.33;29.53
57192;BME280;43052;52.588;13.396;2023-04-28T12:26:01;100965.84;;;18.24;29.84
57192;BME280;43052;52.588;13.396;2023-04-28T12:28:39;100962.97;;;18.30;29.93
57192;BME280;43052;52.588;13.396;2023-04-28T12:31:06;100962.34;;;18.49;30.04
57192;BME280;43052;52.588;13.396;2023-04-28T12:33:35;100964.50;;;18.63;29.34
57192;BME280;43052;52.588;13.396;2023-04-28T12:36:03;100952.59;;;18.50;29.28
57192;BME280;43052;52.588;13.396;2023-04-28T12:38:30;100963.94;;;18.53;29.92
57192;BME280;43052;52.588;13.396;2023-04-28T12:40:55;100953.50;;;18.74;29.69
57192;BME280;43052;52.588;13.396;2023-04-28T12:43:21;100947.44;;;18.70;29.46
57192;BME280;43052;52.588;13.396;2023-04-28T12:45:51;100944.56;;;18.53;29.46
57192;BME280;43052;52.588;13.396;2023-04-28T12:48:21;100951.50;;;18.30;29.60
57192;BME280;43052;52.588;13.396;2023-04-28T12:50:49;100943.38;;;18.36;29.72
57192;BME280;43052;52.588;13.396;2023-04-28T12:53:14;100941.59;;;18.60;29.61
57192;BME280;43052;52.588;13.396;2023-04-28T12:55:40;100942.50;;;18.85;29.56